createdAt,value
2018-12-25T00:01:25.015Z,-8.80
2018-12-25T00:03:57.619Z,-8.80
2018-12-25T00:06:30.072Z,-8.80
2018-12-25T00:09:02.803Z,-8.80
2018-12-25T00:11:35.859Z,-8.70
2018-12-25T00:14:08.489Z,-8.70
2018-12-25T00:16:40.912Z,-8.60
2018-12-25T00:19:13.554Z,-8.50
2018-12-25T00:21:45.733Z,-8.50
2018-12-25T00:24:18.390Z,-8.60
2018-12-25T00:26:51.277Z,-8.60
2018-12-25T00:29:23.544Z,-8.70
2018-12-25T00:31:56.121Z,-8.70
2018-12-25T00:34:28.409Z,-8.70
2018-12-25T00:37:00.693Z,-8.80
2018-12-25T00:39:33.251Z,-8.80
2018-12-25T00:42:05.725Z,-8.80
2018-12-25T00:44:38.158Z,-8.80
2018-12-25T00:47:10.374Z,-8.80
2018-12-25T00:49:42.812Z,-8.90
2018-12-25T00:52:15.496Z,-8.90
2018-12-25T00:54:48.268Z,-9.00
2018-12-25T00:57:20.584Z,-9.00
2018-12-25T00:59:52.979Z,-9.10
2018-12-25T01:02:25.552Z,-9.20
2018-12-25T01:04:58.069Z,-9.20
2018-12-25T01:07:30.652Z,-9.20
2018-12-25T01:10:03.097Z,-9.20
2018-12-25T01:12:35.613Z,-9.30
2018-12-25T01:15:08.303Z,-9.40
2018-12-25T01:17:40.688Z,-9.40
2018-12-25T01:20:13.228Z,-9.40
2018-12-25T01:22:45.465Z,-9.40
2018-12-25T01:25:18.275Z,-9.50
2018-12-25T01:27:50.800Z,-9.50
2018-12-25T01:30:22.842Z,-9.50
2018-12-25T01:32:54.787Z,-9.50
2018-12-25T01:35:27.022Z,-9.50
2018-12-25T01:37:59.927Z,-9.60
2018-12-25T01:40:32.734Z,-9.60
2018-12-25T01:43:05.778Z,-9.70
2018-12-25T01:45:38.489Z,-9.70
2018-12-25T01:48:10.882Z,-9.80
2018-12-25T01:50:43.226Z,-9.70
2018-12-25T01:53:15.808Z,-9.80
2018-12-25T01:55:48.158Z,-9.80
2018-12-25T01:58:20.504Z,-9.90
2018-12-25T02:00:52.843Z,-10.00
2018-12-25T02:03:25.146Z,-10.00
2018-12-25T02:05:57.693Z,-10.10
2018-12-25T02:08:30.348Z,-10.10
2018-12-25T02:11:03.450Z,-10.10
2018-12-25T02:13:35.972Z,-10.20
2018-12-25T02:16:08.703Z,-10.10
2018-12-25T02:18:41.960Z,-10.10
2018-12-25T02:21:14.364Z,-10.20
2018-12-25T02:23:47.156Z,-10.20
2018-12-25T02:26:19.932Z,-10.30
2018-12-25T02:28:53.043Z,-10.40
2018-12-25T02:31:25.179Z,-10.40
2018-12-25T02:33:58.192Z,-10.40
2018-12-25T02:36:31.056Z,-10.50
2018-12-25T02:39:03.976Z,-10.40
2018-12-25T02:41:36.409Z,-10.50
2018-12-25T02:44:09.852Z,-10.50
2018-12-25T02:46:42.158Z,-10.50
2018-12-25T02:49:14.233Z,-10.50
2018-12-25T02:51:46.815Z,-10.50
2018-12-25T02:54:19.257Z,-10.60
2018-12-25T02:56:51.687Z,-10.60
2018-12-25T02:59:24.198Z,-10.70
2018-12-25T03:01:56.442Z,-10.70
2018-12-25T03:04:28.484Z,-10.70
2018-12-25T03:07:00.932Z,-10.80
2018-12-25T03:09:34.054Z,-10.80
2018-12-25T03:12:07.022Z,-10.90
2018-12-25T03:14:40.133Z,-10.90
2018-12-25T03:17:12.832Z,-10.90
2018-12-25T03:19:45.578Z,-11.00
2018-12-25T03:22:18.266Z,-11.00
2018-12-25T03:24:51.322Z,-11.10
2018-12-25T03:27:23.681Z,-11.10
2018-12-25T03:29:56.251Z,-11.30
2018-12-25T03:32:29.117Z,-11.30
2018-12-25T03:35:01.639Z,-11.40
2018-12-25T03:37:34.069Z,-11.50
2018-12-25T03:40:06.851Z,-11.60
2018-12-25T03:42:39.811Z,-11.70
2018-12-25T03:45:12.694Z,-11.70
2018-12-25T03:47:46.424Z,-11.70
2018-12-25T03:50:19.748Z,-11.80
2018-12-25T03:52:52.573Z,-11.80
2018-12-25T03:55:24.978Z,-11.90
2018-12-25T03:57:57.636Z,-12.10
2018-12-25T04:00:30.443Z,-12.20
2018-12-25T04:03:03.180Z,-12.40
2018-12-25T04:05:35.667Z,-12.50
2018-12-25T04:08:08.344Z,-12.70
2018-12-25T04:10:40.669Z,-12.80
2018-12-25T04:13:13.416Z,-12.90
2018-12-25T04:15:46.666Z,-12.90
2018-12-25T04:18:18.944Z,-12.90
2018-12-25T04:20:51.501Z,-12.90
2018-12-25T04:23:23.606Z,-13.00
2018-12-25T04:25:56.288Z,-13.00
2018-12-25T04:28:28.764Z,-13.00
2018-12-25T04:31:01.488Z,-13.00
2018-12-25T04:33:34.140Z,-13.00
2018-12-25T04:36:06.884Z,-12.90
2018-12-25T04:38:39.811Z,-12.90
2018-12-25T04:41:12.260Z,-12.90
2018-12-25T04:43:44.753Z,-12.90
2018-12-25T04:46:17.628Z,-12.90
2018-12-25T04:48:49.904Z,-12.90
2018-12-25T04:51:22.388Z,-12.90
2018-12-25T04:53:55.119Z,-12.80
2018-12-25T04:56:27.811Z,-12.90
2018-12-25T04:59:00.113Z,-12.90
2018-12-25T05:01:32.864Z,-13.00
2018-12-25T05:04:04.840Z,-13.00
2018-12-25T05:06:37.119Z,-13.10
2018-12-25T05:09:10.812Z,-13.00
2018-12-25T05:11:43.391Z,-13.10
2018-12-25T05:14:15.673Z,-13.10
2018-12-25T05:16:48.349Z,-13.20
2018-12-25T05:19:21.020Z,-13.20
2018-12-25T05:21:53.403Z,-13.30
2018-12-25T05:24:28.741Z,-13.40
2018-12-25T05:27:01.452Z,-13.40
2018-12-25T05:29:34.680Z,-13.40
2018-12-25T05:32:06.879Z,-13.40
2018-12-25T05:34:39.333Z,-13.40
2018-12-25T05:37:11.482Z,-13.30
2018-12-25T05:39:43.964Z,-13.20
2018-12-25T05:42:18.154Z,-13.10
2018-12-25T05:44:50.483Z,-12.90
2018-12-25T05:47:23.288Z,-12.80
2018-12-25T05:49:55.645Z,-12.60
2018-12-25T05:52:28.449Z,-12.60
2018-12-25T05:55:01.089Z,-12.60
2018-12-25T05:57:33.717Z,-12.50
2018-12-25T06:00:07.471Z,-12.40
2018-12-25T06:02:40.007Z,-12.40
2018-12-25T06:05:12.195Z,-12.50
2018-12-25T06:07:44.337Z,-12.60
2018-12-25T06:10:16.660Z,-12.70
2018-12-25T06:12:49.147Z,-12.90
2018-12-25T06:15:21.280Z,-13.00
2018-12-25T06:17:53.875Z,-13.20
2018-12-25T06:20:26.435Z,-13.20
2018-12-25T06:22:59.351Z,-13.30
2018-12-25T06:25:31.953Z,-13.40
2018-12-25T06:28:04.469Z,-13.60
2018-12-25T06:30:37.176Z,-13.80
2018-12-25T06:33:10.016Z,-14.00
2018-12-25T06:35:42.786Z,-14.20
2018-12-25T06:38:15.110Z,-14.40
2018-12-25T06:40:47.574Z,-14.40
2018-12-25T06:43:19.965Z,-14.50
2018-12-25T06:45:52.462Z,-14.70
2018-12-25T06:48:24.909Z,-14.80
2018-12-25T06:51:03.797Z,-14.90
2018-12-25T06:53:31.321Z,-14.80
2018-12-25T06:56:04.361Z,-14.80
2018-12-25T06:58:36.635Z,-14.60
2018-12-25T07:01:09.457Z,-14.60
2018-12-25T07:03:41.683Z,-14.60
2018-12-25T07:06:14.181Z,-14.70
2018-12-25T07:08:47.337Z,-14.70
2018-12-25T07:11:20.372Z,-14.80
2018-12-25T07:13:53.017Z,-14.90
2018-12-25T07:16:25.401Z,-15.00
2018-12-25T07:18:58.955Z,-15.00
2018-12-25T07:21:31.560Z,-15.00
2018-12-25T07:24:04.048Z,-15.00
2018-12-25T07:26:36.640Z,-14.90
2018-12-25T07:29:09.151Z,-15.00
2018-12-25T07:31:41.291Z,-15.00
2018-12-25T07:34:13.696Z,-15.00
2018-12-25T07:36:46.022Z,-15.00
2018-12-25T07:39:18.593Z,-14.90
2018-12-25T07:41:51.203Z,-14.80
2018-12-25T07:44:23.984Z,-14.70
2018-12-25T07:46:56.272Z,-14.80
2018-12-25T07:49:28.758Z,-14.80
2018-12-25T07:52:01.023Z,-14.80
2018-12-25T07:54:33.612Z,-14.70
2018-12-25T07:57:06.156Z,-14.70
2018-12-25T07:59:39.137Z,-14.80
2018-12-25T08:02:11.904Z,-14.80
2018-12-25T08:04:44.706Z,-14.80
2018-12-25T08:07:17.295Z,-14.80
2018-12-25T08:09:49.981Z,-14.70
2018-12-25T08:12:22.610Z,-14.70
2018-12-25T08:14:55.088Z,-14.70
2018-12-25T08:17:27.357Z,-14.70
2018-12-25T08:20:00.006Z,-14.70
2018-12-25T08:22:32.513Z,-14.70
2018-12-25T08:25:04.915Z,-14.70
2018-12-25T08:27:37.561Z,-14.70
2018-12-25T08:30:10.428Z,-14.70
2018-12-25T08:32:43.345Z,-14.70
2018-12-25T08:35:16.611Z,-14.60
2018-12-25T08:37:49.221Z,-14.60
2018-12-25T08:40:22.104Z,-14.50
2018-12-25T08:42:54.509Z,-14.50
2018-12-25T08:45:27.280Z,-14.40
2018-12-25T08:47:59.595Z,-14.40
2018-12-25T08:50:33.017Z,-14.50
2018-12-25T08:53:05.489Z,-14.60
2018-12-25T08:55:38.613Z,-14.60
2018-12-25T08:58:11.438Z,-14.60
2018-12-25T09:00:43.891Z,-14.60
2018-12-25T09:03:16.224Z,-14.60
2018-12-25T09:05:48.511Z,-14.60
2018-12-25T09:08:21.095Z,-14.60
2018-12-25T09:10:53.688Z,-14.60
2018-12-25T09:13:25.983Z,-14.50
2018-12-25T09:15:58.716Z,-14.60
2018-12-25T09:18:31.238Z,-14.70
2018-12-25T09:21:03.881Z,-14.70
2018-12-25T09:23:36.444Z,-14.80
2018-12-25T09:26:09.242Z,-14.80
2018-12-25T09:28:41.961Z,-14.90
2018-12-25T09:31:14.667Z,-14.90
2018-12-25T09:33:47.148Z,-15.00
2018-12-25T09:36:19.476Z,-15.10
2018-12-25T09:38:51.875Z,-15.10
2018-12-25T09:41:24.357Z,-15.20
2018-12-25T09:43:56.822Z,-15.30
2018-12-25T09:46:29.444Z,-15.40
2018-12-25T09:49:02.188Z,-15.40
2018-12-25T09:51:35.027Z,-15.40
2018-12-25T09:54:08.291Z,-15.30
2018-12-25T09:56:40.899Z,-15.20
2018-12-25T09:59:13.531Z,-15.30
2018-12-25T10:01:46.334Z,-15.40
2018-12-25T10:04:18.684Z,-15.50
2018-12-25T10:06:51.231Z,-15.70
2018-12-25T10:09:23.860Z,-15.80
2018-12-25T10:11:56.510Z,-15.90
2018-12-25T10:14:28.750Z,-15.80
2018-12-25T10:17:01.593Z,-15.90
2018-12-25T10:19:34.154Z,-15.90
2018-12-25T10:22:07.239Z,-15.90
2018-12-25T10:24:39.773Z,-15.90
2018-12-25T10:27:12.497Z,-16.10
2018-12-25T10:29:44.750Z,-16.10
2018-12-25T10:32:17.233Z,-16.10
2018-12-25T10:34:49.403Z,-16.20
2018-12-25T10:37:22.258Z,-16.30
2018-12-25T10:39:54.655Z,-16.40
2018-12-25T10:42:26.889Z,-16.40
2018-12-25T10:44:59.699Z,-16.50
2018-12-25T10:47:31.806Z,-16.60
2018-12-25T10:50:04.759Z,-16.60
2018-12-25T10:52:37.414Z,-16.70
2018-12-25T10:55:10.144Z,-16.70
2018-12-25T10:57:42.709Z,-16.80
2018-12-25T11:00:16.687Z,-16.90
2018-12-25T11:02:49.514Z,-16.90
2018-12-25T11:05:22.390Z,-17.00
2018-12-25T11:07:54.960Z,-17.00
2018-12-25T11:10:27.332Z,-17.00
2018-12-25T11:12:59.910Z,-16.80
2018-12-25T11:15:32.783Z,-16.80
2018-12-25T11:18:05.641Z,-16.80
2018-12-25T11:20:38.198Z,-16.60
2018-12-25T11:23:10.838Z,-16.50
2018-12-25T11:25:43.369Z,-16.40
2018-12-25T11:28:15.816Z,-16.40
2018-12-25T11:30:48.526Z,-16.50
2018-12-25T11:33:20.993Z,-16.50
2018-12-25T11:35:53.726Z,-16.40
2018-12-25T11:38:26.103Z,-16.40
2018-12-25T11:40:58.689Z,-16.40
2018-12-25T11:43:31.883Z,-16.40
2018-12-25T11:46:04.365Z,-16.50
2018-12-25T11:48:37.122Z,-16.50
2018-12-25T11:51:09.563Z,-16.30
2018-12-25T11:53:42.380Z,-16.30
2018-12-25T11:56:14.949Z,-16.30
2018-12-25T11:58:48.060Z,-16.30
2018-12-25T12:01:20.704Z,-16.30
2018-12-25T12:03:53.103Z,-16.30
2018-12-25T12:06:25.330Z,-16.20
2018-12-25T12:08:57.825Z,-16.20
2018-12-25T12:11:30.519Z,-16.30
2018-12-25T12:14:03.219Z,-16.30
2018-12-25T12:16:35.684Z,-16.40
2018-12-25T12:19:08.268Z,-16.60
2018-12-25T12:21:40.827Z,-16.60
2018-12-25T12:24:13.623Z,-16.50
2018-12-25T12:26:45.669Z,-16.30
2018-12-25T12:29:18.839Z,-16.20
2018-12-25T12:31:51.115Z,-16.20
2018-12-25T12:34:23.797Z,-16.20
2018-12-25T12:36:55.900Z,-16.20
2018-12-25T12:39:28.592Z,-16.20
2018-12-25T12:42:00.620Z,-16.10
2018-12-25T12:44:33.412Z,-16.10
2018-12-25T12:47:05.276Z,-16.20
2018-12-25T12:49:38.033Z,-16.20
2018-12-25T12:52:10.269Z,-16.20
2018-12-25T12:54:42.966Z,-16.20
2018-12-25T12:57:15.592Z,-16.30
2018-12-25T12:59:48.249Z,-16.40
2018-12-25T13:02:20.958Z,-16.50
2018-12-25T13:04:54.070Z,-16.60
2018-12-25T13:07:26.780Z,-16.70
2018-12-25T13:09:59.650Z,-16.60
2018-12-25T13:12:31.947Z,-16.50
2018-12-25T13:15:04.584Z,-16.40
2018-12-25T13:17:36.527Z,-16.40
2018-12-25T13:20:09.504Z,-16.30
2018-12-25T13:22:41.931Z,-16.30
2018-12-25T13:25:14.671Z,-16.30
2018-12-25T13:27:46.906Z,-16.20
2018-12-25T13:30:19.753Z,-16.10
2018-12-25T13:32:52.298Z,-16.00
2018-12-25T13:35:25.080Z,-15.80
2018-12-25T13:37:57.526Z,-15.60
2018-12-25T13:40:29.959Z,-15.50
2018-12-25T13:43:01.915Z,-15.30
2018-12-25T13:45:34.366Z,-15.20
2018-12-25T13:48:06.700Z,-15.10
2018-12-25T13:50:39.141Z,-15.00
2018-12-25T13:53:11.691Z,-14.90
2018-12-25T13:55:44.291Z,-14.90
2018-12-25T13:58:17.359Z,-14.80
2018-12-25T14:00:50.172Z,-14.70
2018-12-25T14:03:22.985Z,-14.60
2018-12-25T14:05:55.340Z,-14.50
2018-12-25T14:08:27.515Z,-14.50
2018-12-25T14:10:59.866Z,-14.40
2018-12-25T14:13:32.296Z,-14.30
2018-12-25T14:16:05.047Z,-14.20
2018-12-25T14:18:37.461Z,-14.20
2018-12-25T14:21:09.935Z,-14.10
2018-12-25T14:23:42.318Z,-14.00
2018-12-25T14:26:14.521Z,-13.90
2018-12-25T14:28:46.625Z,-13.80
2018-12-25T14:31:19.005Z,-13.80
2018-12-25T14:33:51.850Z,-13.70
2018-12-25T14:36:24.081Z,-13.70
2018-12-25T14:38:56.406Z,-13.60
2018-12-25T14:41:28.521Z,-13.60
2018-12-25T14:44:05.136Z,-13.50
2018-12-25T14:46:34.786Z,-13.40
2018-12-25T14:49:07.149Z,-13.30
2018-12-25T14:51:40.061Z,-13.30
2018-12-25T14:54:12.917Z,-13.30
2018-12-25T14:56:45.800Z,-13.20
2018-12-25T14:59:18.820Z,-13.20
2018-12-25T15:01:51.928Z,-13.20
2018-12-25T15:04:24.645Z,-13.10
2018-12-25T15:06:57.519Z,-13.00
2018-12-25T15:09:30.631Z,-13.00
2018-12-25T15:12:03.622Z,-13.00
2018-12-25T15:14:36.214Z,-12.90
2018-12-25T15:17:09.323Z,-12.90
2018-12-25T15:19:42.595Z,-12.80
2018-12-25T15:22:16.037Z,-12.70
2018-12-25T15:24:49.491Z,-12.60
2018-12-25T15:27:22.111Z,-12.60
2018-12-25T15:29:54.792Z,-12.50
2018-12-25T15:32:27.317Z,-12.50
2018-12-25T15:35:00.696Z,-12.40
2018-12-25T15:37:33.305Z,-12.30
2018-12-25T15:40:05.826Z,-12.30
2018-12-25T15:42:38.364Z,-12.20
2018-12-25T15:45:11.379Z,-12.20
2018-12-25T15:47:44.315Z,-12.10
2018-12-25T15:50:17.101Z,-12.00
2018-12-25T15:52:49.912Z,-11.90
2018-12-25T15:55:22.196Z,-11.90
2018-12-25T15:57:54.894Z,-11.80
2018-12-25T16:00:27.703Z,-11.70
2018-12-25T16:03:00.612Z,-11.50
2018-12-25T16:05:33.583Z,-11.30
2018-12-25T16:08:05.967Z,-11.20
2018-12-25T16:10:38.205Z,-11.10
2018-12-25T16:13:10.842Z,-10.70
2018-12-25T16:15:43.271Z,-10.40
2018-12-25T16:18:15.650Z,-10.20
2018-12-25T16:20:48.204Z,-9.80
2018-12-25T16:23:21.025Z,-9.60
2018-12-25T16:26:12.478Z,-9.60
2018-12-25T16:28:45.174Z,-9.70
2018-12-25T16:31:17.638Z,-9.70
2018-12-25T16:33:50.959Z,-9.60
2018-12-25T16:36:23.528Z,-9.60
2018-12-25T16:38:56.137Z,-9.50
2018-12-25T16:41:28.478Z,-9.40
2018-12-25T16:44:01.939Z,-9.30
2018-12-25T16:49:10.899Z,-9.70
2018-12-25T16:51:43.419Z,-9.70
2018-12-25T16:56:52.414Z,-9.40
2018-12-25T16:59:25.663Z,-9.30
2018-12-25T17:01:58.311Z,-9.20
2018-12-25T17:04:30.821Z,-9.10
2018-12-25T17:07:03.720Z,-9.10
2018-12-25T17:09:36.376Z,-9.00
2018-12-25T17:12:09.153Z,-8.90
2018-12-25T17:14:41.338Z,-8.80
2018-12-25T17:17:14.455Z,-8.90
2018-12-25T17:19:46.577Z,-8.80
2018-12-25T17:22:19.354Z,-8.70
2018-12-25T17:24:51.732Z,-8.70
2018-12-25T17:27:24.320Z,-8.60
2018-12-25T17:29:56.944Z,-8.60
2018-12-25T17:32:29.686Z,-8.50
2018-12-25T17:37:49.938Z,-8.40
2018-12-25T17:40:22.355Z,-8.40
2018-12-25T17:42:54.848Z,-8.30
2018-12-25T17:45:27.402Z,-8.30
2018-12-25T17:48:00.563Z,-8.20
2018-12-25T17:50:33.794Z,-8.20
2018-12-25T17:53:06.421Z,-8.10
2018-12-25T17:55:38.865Z,-8.20
2018-12-25T17:58:11.304Z,-8.50
2018-12-25T18:00:43.898Z,-8.40
2018-12-25T18:03:16.494Z,-8.20
2018-12-25T18:05:49.572Z,-8.30
2018-12-25T18:08:22.735Z,-8.30
2018-12-25T18:10:55.220Z,-8.40
2018-12-25T18:13:27.902Z,-8.60
2018-12-25T18:16:00.884Z,-8.70
2018-12-25T18:18:34.307Z,-8.80
2018-12-25T18:21:07.369Z,-8.70
2018-12-25T18:26:15.719Z,-8.70
2018-12-25T18:28:48.361Z,-8.70
2018-12-25T18:31:20.654Z,-8.60
2018-12-25T18:33:53.181Z,-8.60
2018-12-25T18:36:26.203Z,-8.40
2018-12-25T18:38:58.448Z,-8.30
2018-12-25T18:41:30.838Z,-8.20
2018-12-25T18:44:03.388Z,-8.00
2018-12-25T18:46:35.547Z,-8.20
2018-12-25T18:51:43.780Z,-8.20
2018-12-25T18:54:16.429Z,-8.10
2018-12-25T18:56:48.840Z,-8.20
2018-12-25T18:59:21.064Z,-8.20
2018-12-25T19:01:53.832Z,-8.10
2018-12-25T19:04:26.946Z,-8.00
2018-12-25T19:06:59.480Z,-8.20
2018-12-25T19:09:32.160Z,-8.20
2018-12-25T19:12:05.179Z,-8.10
2018-12-25T19:14:38.950Z,-8.00
2018-12-25T19:17:11.067Z,-7.90
2018-12-25T19:27:43.531Z,-7.80
2018-12-25T19:30:17.004Z,-7.70
2018-12-25T19:32:50.053Z,-7.80
2018-12-25T19:35:23.259Z,-7.70
2018-12-25T19:37:56.124Z,-7.70
2018-12-25T19:40:29.005Z,-7.80
2018-12-25T19:43:01.989Z,-7.80
2018-12-25T19:51:05.985Z,-8.00
2018-12-25T19:53:38.489Z,-8.20
2018-12-25T19:56:11.120Z,-8.30
2018-12-25T19:58:43.661Z,-8.40
2018-12-25T20:01:16.125Z,-8.70
2018-12-25T20:03:55.217Z,-8.80
2018-12-25T20:10:08.077Z,-9.10
2018-12-25T20:13:31.133Z,-9.30
2018-12-25T20:17:02.058Z,-9.60
2018-12-25T20:20:14.303Z,-9.80
2018-12-25T20:23:41.747Z,-9.90
2018-12-25T20:26:50.441Z,-10.00
2018-12-25T20:32:44.748Z,-10.20
2018-12-25T20:38:43.405Z,-10.20
2018-12-25T20:42:10.371Z,-10.30
2018-12-25T20:45:25.052Z,-10.30
2018-12-25T20:48:42.176Z,-10.30
2018-12-25T20:51:49.981Z,-10.40
2018-12-25T20:55:01.431Z,-10.50
2018-12-25T20:58:04.780Z,-10.60
2018-12-25T21:01:12.362Z,-10.60
2018-12-25T21:04:13.072Z,-10.70
2018-12-25T21:07:20.380Z,-10.60
2018-12-25T21:10:35.338Z,-10.60
2018-12-25T21:13:30.139Z,-10.80
2018-12-25T21:16:48.462Z,-10.90
2018-12-25T21:20:15.696Z,-11.00
2018-12-25T21:23:21.983Z,-11.00
2018-12-25T21:28:30.088Z,-11.30
2018-12-25T21:33:51.453Z,-11.40
2018-12-25T21:36:23.955Z,-11.50
2018-12-25T21:38:56.328Z,-11.60
2018-12-25T21:41:28.502Z,-11.60
2018-12-25T21:44:00.949Z,-11.70
2018-12-25T21:46:33.464Z,-11.90
2018-12-25T21:49:06.096Z,-11.90
2018-12-25T21:51:39.534Z,-12.10
2018-12-25T21:54:12.317Z,-12.30
2018-12-25T21:56:44.879Z,-12.40
2018-12-25T21:59:17.506Z,-12.40
2018-12-25T22:01:50.942Z,-12.40
2018-12-25T22:04:23.813Z,-12.50
2018-12-25T22:06:56.337Z,-12.50
2018-12-25T22:09:28.819Z,-12.60
2018-12-25T22:12:01.020Z,-12.60
2018-12-25T22:17:09.837Z,-12.80
2018-12-25T22:19:41.884Z,-12.80
2018-12-25T22:22:14.271Z,-12.90
2018-12-25T22:27:22.509Z,-13.00
2018-12-25T22:29:54.702Z,-13.00
2018-12-25T22:32:27.636Z,-13.10
2018-12-25T22:35:00.931Z,-13.20
2018-12-25T22:37:33.749Z,-13.30
2018-12-25T22:40:06.313Z,-13.30
2018-12-25T22:42:38.896Z,-13.30
2018-12-25T22:47:46.984Z,-13.20
2018-12-25T22:50:19.242Z,-13.20
2018-12-25T22:52:51.549Z,-13.20
2018-12-25T22:57:59.898Z,-13.10
2018-12-25T23:00:33.249Z,-13.10
2018-12-25T23:03:06.542Z,-13.20
2018-12-25T23:05:45.703Z,-13.30
2018-12-25T23:08:18.972Z,-13.40
2018-12-25T23:10:52.026Z,-13.40
2018-12-25T23:13:24.886Z,-13.20
2018-12-25T23:15:57.664Z,-13.20
2018-12-25T23:21:25.837Z,-13.20
2018-12-25T23:23:58.715Z,-13.10
2018-12-25T23:26:31.276Z,-13.20
2018-12-25T23:29:03.640Z,-13.10
2018-12-25T23:31:36.223Z,-13.10
2018-12-25T23:34:08.280Z,-13.30
2018-12-25T23:36:40.831Z,-13.50
2018-12-25T23:39:13.749Z,-13.70
2018-12-25T23:41:46.489Z,-14.00
2018-12-25T23:46:47.469Z,-14.40
2018-12-25T23:49:19.971Z,-14.50
2018-12-25T23:51:52.347Z,-14.50
2018-12-25T23:54:25.140Z,-14.40
2018-12-25T23:56:58.420Z,-14.40
2018-12-25T23:59:30.914Z,-14.40
